createdAt,value
2022-09-15T00:01:45.798Z,6.32
2022-09-15T00:04:13.601Z,5.97
2022-09-15T00:06:41.359Z,5.95
2022-09-15T00:09:09.459Z,6.00
2022-09-15T00:11:38.056Z,6.07
2022-09-15T00:14:09.135Z,5.72
2022-09-15T00:16:37.490Z,5.75
2022-09-15T00:19:07.473Z,5.40
2022-09-15T00:24:28.762Z,5.35
2022-09-15T00:26:56.816Z,5.05
2022-09-15T00:29:24.626Z,6.18
2022-09-15T00:34:46.117Z,5.85
2022-09-15T00:37:13.963Z,5.40
2022-09-15T00:39:41.742Z,6.15
2022-09-15T00:42:15.064Z,6.05
2022-09-15T00:44:50.878Z,6.18
2022-09-15T00:47:21.405Z,6.45
2022-09-15T00:49:58.796Z,6.22
2022-09-15T00:52:32.530Z,6.78
2022-09-15T00:55:04.088Z,5.85
2022-09-15T00:57:36.690Z,5.90
2022-09-15T01:00:13.292Z,6.05
2022-09-15T01:02:43.369Z,5.38
2022-09-15T01:05:16.627Z,6.22
2022-09-15T01:07:47.958Z,6.80
2022-09-15T01:10:20.912Z,6.15
2022-09-15T01:12:48.932Z,5.43
2022-09-15T01:15:17.320Z,6.88
2022-09-15T01:18:11.553Z,6.43
2022-09-15T01:21:01.027Z,5.43
2022-09-15T01:23:46.858Z,6.53
2022-09-15T01:26:58.140Z,6.40
2022-09-15T01:30:10.566Z,7.93
2022-09-15T01:33:07.152Z,6.07
2022-09-15T01:35:44.848Z,6.05
2022-09-15T01:38:21.386Z,7.57
2022-09-15T01:40:53.964Z,5.72
2022-09-15T01:45:53.480Z,6.82
2022-09-15T01:48:25.725Z,8.05
2022-09-15T01:50:56.953Z,8.45
2022-09-15T01:53:25.639Z,7.60
2022-09-15T01:55:57.244Z,8.48
2022-09-15T01:58:25.137Z,8.07
2022-09-15T02:00:58.211Z,8.15
2022-09-15T02:03:34.996Z,8.40
2022-09-15T02:06:07.626Z,9.07
2022-09-15T02:11:17.402Z,9.25
2022-09-15T02:13:57.294Z,8.25
2022-09-15T02:16:28.629Z,9.95
2022-09-15T02:19:20.243Z,7.28
2022-09-15T02:21:58.544Z,8.90
2022-09-15T02:24:32.873Z,9.68
2022-09-15T02:27:04.298Z,9.55
2022-09-15T02:29:37.261Z,9.27
2022-09-15T02:32:07.630Z,8.60
2022-09-15T02:34:41.367Z,9.57
2022-09-15T02:37:11.504Z,9.80
2022-09-15T02:39:44.569Z,9.73
2022-09-15T02:45:06.072Z,8.20
2022-09-15T02:47:33.911Z,9.43
2022-09-15T02:50:04.067Z,9.05
2022-09-15T02:52:31.927Z,9.40
2022-09-15T02:55:01.127Z,7.85
2022-09-15T02:57:28.909Z,7.97
2022-09-15T03:00:14.941Z,13.20
2022-09-15T03:02:45.431Z,9.60
2022-09-15T03:05:16.444Z,12.55
2022-09-15T03:07:44.562Z,13.65
2022-09-15T03:10:13.774Z,14.73
2022-09-15T03:12:43.084Z,9.70
2022-09-15T03:15:12.873Z,14.27
2022-09-15T03:17:42.847Z,14.02
2022-09-15T03:20:12.648Z,12.77
2022-09-15T03:22:42.052Z,13.05
2022-09-15T03:25:10.579Z,14.55
2022-09-15T03:27:38.719Z,12.75
2022-09-15T03:30:08.545Z,13.82
2022-09-15T03:32:36.515Z,15.15
2022-09-15T03:35:05.221Z,12.98
2022-09-15T03:37:33.794Z,12.18
2022-09-15T03:40:04.654Z,13.45
2022-09-15T03:42:38.406Z,12.32
2022-09-15T03:45:07.887Z,13.00
2022-09-15T03:47:35.670Z,12.13
2022-09-15T03:50:03.542Z,13.52
2022-09-15T03:52:32.439Z,13.38
2022-09-15T03:55:00.532Z,13.82
2022-09-15T03:57:29.649Z,12.82
2022-09-15T03:59:57.585Z,13.13
2022-09-15T04:02:25.508Z,12.57
2022-09-15T04:04:53.489Z,12.45
2022-09-15T04:07:21.276Z,12.85
2022-09-15T04:09:49.214Z,12.05
2022-09-15T04:12:17.242Z,11.35
2022-09-15T04:14:46.942Z,13.02
2022-09-15T04:17:15.550Z,12.07
2022-09-15T04:19:43.392Z,10.20
2022-09-15T04:22:15.523Z,10.15
2022-09-15T04:24:45.651Z,11.20
2022-09-15T04:27:13.536Z,11.60
2022-09-15T04:29:41.826Z,11.68
2022-09-15T04:32:11.245Z,14.23
2022-09-15T04:37:31.009Z,12.77
2022-09-15T04:39:59.078Z,15.27
2022-09-15T04:42:26.980Z,14.63
2022-09-15T04:44:54.914Z,15.45
2022-09-15T04:47:24.055Z,15.32
2022-09-15T04:49:52.056Z,16.52
2022-09-15T04:52:19.890Z,17.58
2022-09-15T04:54:47.896Z,15.38
2022-09-15T04:57:15.902Z,13.45
2022-09-15T04:59:43.680Z,15.20
2022-09-15T05:02:11.614Z,16.40
2022-09-15T05:04:40.840Z,14.85
2022-09-15T05:07:08.634Z,15.88
2022-09-15T05:09:36.486Z,16.65
2022-09-15T05:12:04.263Z,16.48
2022-09-15T05:14:32.287Z,13.18
2022-09-15T05:17:00.258Z,14.48
2022-09-15T05:19:28.013Z,14.90
2022-09-15T05:21:57.213Z,15.48
2022-09-15T05:24:24.962Z,15.57
2022-09-15T05:27:17.625Z,14.55
2022-09-15T05:29:45.512Z,14.02
2022-09-15T05:32:13.318Z,13.95
2022-09-15T05:34:41.327Z,16.23
2022-09-15T05:37:10.866Z,15.82
2022-09-15T05:39:41.008Z,11.38
2022-09-15T05:42:10.766Z,14.52
2022-09-15T05:44:38.641Z,13.98
2022-09-15T05:47:06.974Z,13.65
2022-09-15T05:49:35.058Z,14.23
2022-09-15T05:52:03.722Z,15.73
2022-09-15T05:54:32.857Z,15.45
2022-09-15T05:57:00.655Z,15.35
2022-09-15T05:59:28.623Z,15.07
2022-09-15T06:01:56.419Z,16.25
2022-09-15T06:04:24.380Z,15.02
2022-09-15T06:06:52.307Z,13.50
2022-09-15T06:09:20.076Z,15.68
2022-09-15T06:11:49.228Z,14.68
2022-09-15T06:14:17.191Z,15.00
2022-09-15T06:16:45.064Z,14.27
2022-09-15T06:19:12.809Z,14.98
2022-09-15T06:21:43.842Z,15.60
2022-09-15T06:24:13.210Z,17.00
2022-09-15T06:26:40.995Z,15.02
2022-09-15T06:29:13.745Z,13.80
2022-09-15T06:31:41.643Z,12.50
2022-09-15T06:34:13.625Z,15.70
2022-09-15T06:36:41.482Z,15.10
2022-09-15T06:39:09.782Z,14.52
2022-09-15T06:42:01.288Z,15.55
2022-09-15T06:44:30.863Z,13.93
2022-09-15T06:46:58.756Z,14.93
2022-09-15T06:49:26.616Z,16.55
2022-09-15T06:51:54.382Z,14.40
2022-09-15T06:54:22.170Z,16.05
2022-09-15T06:56:50.472Z,16.80
2022-09-15T06:59:18.261Z,14.93
2022-09-15T07:01:47.494Z,15.00
2022-09-15T07:04:15.270Z,15.15
2022-09-15T07:06:43.035Z,15.85
2022-09-15T07:09:12.192Z,15.48
2022-09-15T07:11:39.905Z,14.77
2022-09-15T07:14:07.875Z,15.30
2022-09-15T07:16:35.737Z,15.02
2022-09-15T07:19:05.921Z,15.10
2022-09-15T07:21:35.630Z,13.48
2022-09-15T07:24:06.970Z,13.02
2022-09-15T07:26:35.734Z,13.48
2022-09-15T07:29:06.152Z,16.15
2022-09-15T07:34:58.240Z,14.10
2022-09-15T07:37:26.462Z,14.27
2022-09-15T07:39:54.268Z,15.32
2022-09-15T07:42:22.085Z,13.95
2022-09-15T07:44:50.246Z,12.85
2022-09-15T07:47:18.279Z,15.43
2022-09-15T07:49:46.054Z,12.43
2022-09-15T07:52:15.623Z,14.80
2022-09-15T07:54:43.347Z,13.32
2022-09-15T07:57:11.287Z,14.20
2022-09-15T07:59:41.188Z,12.90
2022-09-15T08:02:17.254Z,15.70
2022-09-15T08:04:45.377Z,16.45
2022-09-15T08:07:13.637Z,13.48
2022-09-15T08:09:42.779Z,14.75
2022-09-15T08:12:10.556Z,14.00
2022-09-15T08:14:38.392Z,13.02
2022-09-15T08:17:11.271Z,12.23
2022-09-15T08:19:39.453Z,13.00
2022-09-15T08:22:07.323Z,13.10
2022-09-15T08:24:37.281Z,12.07
2022-09-15T08:27:06.568Z,11.68
2022-09-15T08:29:34.625Z,11.68
2022-09-15T08:32:03.832Z,11.90
2022-09-15T08:34:31.757Z,11.27
2022-09-15T08:36:59.533Z,11.25
2022-09-15T08:39:27.525Z,12.25
2022-09-15T08:41:56.360Z,10.15
2022-09-15T08:44:36.544Z,11.15
2022-09-15T08:47:11.186Z,10.15
2022-09-15T08:49:51.889Z,9.50
2022-09-15T08:52:24.322Z,9.45
2022-09-15T08:54:58.091Z,9.23
2022-09-15T08:57:27.002Z,9.60
2022-09-15T08:59:59.080Z,9.15
2022-09-15T09:02:48.189Z,8.88
2022-09-15T09:05:32.670Z,8.15
2022-09-15T09:08:14.811Z,8.77
2022-09-15T09:10:50.358Z,8.40
2022-09-15T09:13:33.316Z,9.38
2022-09-15T09:16:20.681Z,8.35
2022-09-15T09:19:16.009Z,8.95
2022-09-15T09:21:48.028Z,7.03
2022-09-15T09:24:18.237Z,7.50
2022-09-15T09:26:51.165Z,7.10
2022-09-15T09:29:20.993Z,7.03
2022-09-15T09:31:52.101Z,6.72
2022-09-15T09:34:28.949Z,8.55
2022-09-15T09:37:00.437Z,6.55
2022-09-15T09:39:29.380Z,7.50
2022-09-15T09:41:57.398Z,6.07
2022-09-15T09:44:31.897Z,6.38
2022-09-15T09:47:02.679Z,5.90
2022-09-15T09:49:35.432Z,5.43
2022-09-15T09:52:04.624Z,5.43
2022-09-15T09:54:35.509Z,5.57
2022-09-15T09:57:24.225Z,5.47
2022-09-15T09:59:52.563Z,5.20
2022-09-15T10:02:24.682Z,4.82
2022-09-15T10:04:54.587Z,3.90
2022-09-15T10:07:25.830Z,3.95
2022-09-15T10:10:27.100Z,3.92
2022-09-15T10:13:21.004Z,3.70
2022-09-15T10:42:49.156Z,2.10
2022-09-15T11:24:11.723Z,1.58
2022-09-15T11:35:11.375Z,1.30
2022-09-15T11:41:21.193Z,1.25
2022-09-15T11:47:44.985Z,1.50
2022-09-15T11:57:00.537Z,1.10
2022-09-15T12:06:18.290Z,0.95
2022-09-15T12:15:53.531Z,1.10
2022-09-15T12:21:54.904Z,0.68
2022-09-15T12:31:38.400Z,1.00
2022-09-15T12:34:23.160Z,0.80
2022-09-15T12:36:53.378Z,1.00
2022-09-15T12:39:37.549Z,0.93
2022-09-15T12:42:12.103Z,0.80
2022-09-15T12:44:45.675Z,0.80
2022-09-15T12:47:24.296Z,0.80
2022-09-15T12:49:54.959Z,0.90
2022-09-15T12:52:25.233Z,1.08
2022-09-15T12:54:57.193Z,0.82
2022-09-15T12:57:29.371Z,0.82
2022-09-15T13:00:45.503Z,1.00
2022-09-15T13:03:50.749Z,1.30
2022-09-15T13:06:22.787Z,1.08
2022-09-15T13:09:13.043Z,0.80
2022-09-15T13:14:22.308Z,0.77
2022-09-15T13:16:55.644Z,1.10
2022-09-15T13:19:26.594Z,1.00
2022-09-15T13:22:02.943Z,0.80
2022-09-15T13:24:43.133Z,1.00
2022-09-15T13:27:12.423Z,1.02
2022-09-15T13:29:49.115Z,0.70
2022-09-15T13:32:33.869Z,0.93
2022-09-15T13:35:22.865Z,1.00
2022-09-15T13:38:31.849Z,1.10
2022-09-15T13:41:42.823Z,0.95
2022-09-15T13:44:55.722Z,1.00
2022-09-15T13:47:49.560Z,0.90
2022-09-15T13:50:24.815Z,1.08
2022-09-15T13:53:21.600Z,1.23
2022-09-15T13:55:51.834Z,1.00
2022-09-15T14:01:12.461Z,0.98
2022-09-15T14:03:44.740Z,0.90
2022-09-15T14:06:20.238Z,1.13
2022-09-15T14:08:53.733Z,0.85
2022-09-15T14:11:34.696Z,0.90
2022-09-15T14:14:02.998Z,1.10
2022-09-15T14:16:34.835Z,0.80
2022-09-15T14:19:05.815Z,0.75
2022-09-15T14:21:35.012Z,0.73
2022-09-15T14:24:06.356Z,0.93
2022-09-15T14:26:37.565Z,1.00
2022-09-15T14:29:07.942Z,0.88
2022-09-15T14:31:38.506Z,0.90
2022-09-15T14:34:14.595Z,0.98
2022-09-15T14:36:42.665Z,1.10
2022-09-15T14:39:22.903Z,1.02
2022-09-15T14:41:52.542Z,1.25
2022-09-15T14:49:41.460Z,0.90
2022-09-15T14:52:25.171Z,1.00
2022-09-15T14:54:59.413Z,0.70
2022-09-15T14:57:32.945Z,0.80
2022-09-15T15:00:10.655Z,0.85
2022-09-15T15:02:51.741Z,0.63
2022-09-15T15:05:25.498Z,0.70
2022-09-15T15:07:55.282Z,0.75
2022-09-15T15:10:25.793Z,0.60
2022-09-15T15:12:58.205Z,0.68
2022-09-15T15:15:26.286Z,0.60
2022-09-15T15:17:55.369Z,0.52
2022-09-15T15:20:25.484Z,0.68
2022-09-15T15:23:15.387Z,0.65
2022-09-15T15:25:43.726Z,0.50
2022-09-15T15:28:31.861Z,0.82
2022-09-15T15:31:15.479Z,0.52
2022-09-15T15:33:48.552Z,0.55
2022-09-15T15:36:21.006Z,0.57
2022-09-15T15:41:23.381Z,0.75
2022-09-15T15:44:03.288Z,0.50
2022-09-15T15:46:51.598Z,0.60
2022-09-15T15:49:20.820Z,0.63
2022-09-15T15:51:48.902Z,0.70
2022-09-15T15:54:16.638Z,0.75
2022-09-15T15:56:44.448Z,0.60
2022-09-15T15:59:15.227Z,0.40
2022-09-15T16:01:43.677Z,0.60
2022-09-15T16:04:13.168Z,0.85
2022-09-15T16:06:42.361Z,0.60
2022-09-15T16:09:10.891Z,0.82
2022-09-15T16:11:38.655Z,0.70
2022-09-15T16:14:06.450Z,0.50
2022-09-15T16:16:35.701Z,0.45
2022-09-15T16:19:03.909Z,0.57
2022-09-15T16:21:37.271Z,0.40
2022-09-15T16:24:05.892Z,0.60
2022-09-15T16:26:35.466Z,0.68
2022-09-15T16:29:03.262Z,0.80
2022-09-15T16:31:31.667Z,0.60
2022-09-15T16:34:00.935Z,1.00
2022-09-15T16:36:29.024Z,0.80
2022-09-15T16:39:22.263Z,0.70
2022-09-15T16:41:52.420Z,0.60
2022-09-15T16:44:21.879Z,0.68
2022-09-15T16:46:49.730Z,0.80
2022-09-15T16:49:20.899Z,1.08
2022-09-15T16:51:48.967Z,0.80
2022-09-15T16:54:18.138Z,0.65
2022-09-15T16:56:46.470Z,0.55
2022-09-15T16:59:14.513Z,0.77
2022-09-15T17:01:42.420Z,0.60
2022-09-15T17:04:13.726Z,0.70
2022-09-15T17:06:43.085Z,0.82
2022-09-15T17:09:10.872Z,0.85
2022-09-15T17:11:38.896Z,1.00
2022-09-15T17:14:07.145Z,0.80
2022-09-15T17:16:35.025Z,0.80
2022-09-15T17:19:02.795Z,1.10
2022-09-15T17:21:30.613Z,1.00
2022-09-15T17:23:59.768Z,0.60
2022-09-15T17:26:31.160Z,0.90
2022-09-15T17:28:59.562Z,0.80
2022-09-15T17:31:27.940Z,0.80
2022-09-15T17:33:56.079Z,1.15
2022-09-15T17:36:23.968Z,0.88
2022-09-15T17:38:51.808Z,0.68
2022-09-15T17:41:22.762Z,0.95
2022-09-15T17:43:50.795Z,0.60
2022-09-15T17:46:18.815Z,1.70
2022-09-15T17:48:46.656Z,0.68
2022-09-15T17:51:18.023Z,0.88
2022-09-15T17:53:47.621Z,0.80
2022-09-15T17:56:15.426Z,1.10
2022-09-15T17:58:44.667Z,0.80
2022-09-15T18:01:14.655Z,0.80
2022-09-15T18:03:44.845Z,0.88
2022-09-15T18:06:13.485Z,1.10
2022-09-15T18:08:41.467Z,1.13
2022-09-15T18:11:09.387Z,1.10
2022-09-15T18:13:37.939Z,1.15
2022-09-15T18:16:12.276Z,0.90
2022-09-15T18:18:40.959Z,0.70
2022-09-15T18:21:11.709Z,0.82
2022-09-15T18:23:44.548Z,1.15
2022-09-15T18:26:12.473Z,0.70
2022-09-15T18:28:40.209Z,1.05
2022-09-15T18:31:13.812Z,0.80
2022-09-15T18:33:41.710Z,0.80
2022-09-15T18:36:10.731Z,0.95
2022-09-15T18:38:38.523Z,0.77
2022-09-15T18:41:11.681Z,0.98
2022-09-15T18:44:04.545Z,0.82
2022-09-15T18:46:33.820Z,0.85
2022-09-15T18:49:02.809Z,0.82
2022-09-15T18:51:51.136Z,1.08
2022-09-15T18:54:19.874Z,0.80
2022-09-15T18:56:47.864Z,0.85
2022-09-15T18:59:17.649Z,0.90
2022-09-15T19:01:47.139Z,0.77
2022-09-15T19:04:15.129Z,0.68
2022-09-15T19:06:42.935Z,0.70
2022-09-15T19:09:10.878Z,0.80
2022-09-15T19:11:38.870Z,0.70
2022-09-15T19:14:07.680Z,0.70
2022-09-15T19:16:56.431Z,0.70
2022-09-15T19:19:25.691Z,0.88
2022-09-15T19:21:53.499Z,0.85
2022-09-15T19:24:21.485Z,0.60
2022-09-15T19:26:49.455Z,1.02
2022-09-15T19:29:17.847Z,0.60
2022-09-15T19:31:50.532Z,1.20
2022-09-15T19:34:18.445Z,1.05
2022-09-15T19:36:47.838Z,0.60
2022-09-15T19:39:15.729Z,0.93
2022-09-15T19:41:43.555Z,0.80
2022-09-15T19:44:11.468Z,0.60
2022-09-15T19:46:39.321Z,0.90
2022-09-15T19:49:07.910Z,0.68
2022-09-15T19:51:35.726Z,0.90
2022-09-15T19:54:05.533Z,1.00
2022-09-15T19:56:33.498Z,0.93
2022-09-15T19:59:01.859Z,0.85
2022-09-15T20:01:32.578Z,0.95
2022-09-15T20:04:01.892Z,0.90
2022-09-15T20:06:32.677Z,0.73
2022-09-15T20:09:00.960Z,1.20
2022-09-15T20:11:31.214Z,1.02
2022-09-15T20:13:59.178Z,1.10
2022-09-15T20:16:27.167Z,0.88
2022-09-15T20:18:55.919Z,0.85
2022-09-15T20:21:45.922Z,0.95
2022-09-15T20:24:14.038Z,0.82
2022-09-15T20:26:43.510Z,0.80
2022-09-15T20:29:12.099Z,0.75
2022-09-15T20:31:40.063Z,0.82
2022-09-15T20:34:08.343Z,0.80
2022-09-15T20:36:38.756Z,0.70
2022-09-15T20:39:09.311Z,0.60
2022-09-15T20:41:37.949Z,0.50
2022-09-15T20:44:09.281Z,0.60
2022-09-15T20:46:42.256Z,0.70
2022-09-15T20:49:11.742Z,0.82
2022-09-15T20:51:40.402Z,0.70
2022-09-15T20:54:08.355Z,0.82
2022-09-15T20:56:37.323Z,0.70
2022-09-15T20:59:10.261Z,0.70
2022-09-15T21:01:39.957Z,0.63
2022-09-15T21:04:10.061Z,0.73
2022-09-15T21:06:38.609Z,0.70
2022-09-15T21:09:06.836Z,0.80
2022-09-15T21:11:34.940Z,0.98
2022-09-15T21:14:03.386Z,0.90
2022-09-15T21:16:33.932Z,0.85
2022-09-15T21:19:01.959Z,0.88
2022-09-15T21:21:31.228Z,1.25
2022-09-15T21:24:03.556Z,0.77
2022-09-15T21:26:33.331Z,1.02
2022-09-15T21:29:01.811Z,0.90
2022-09-15T21:31:33.046Z,1.10
2022-09-15T21:34:06.306Z,0.70
2022-09-15T21:36:34.440Z,1.20
2022-09-15T21:39:02.901Z,0.90
2022-09-15T21:41:31.715Z,0.90
2022-09-15T21:44:01.076Z,1.10
2022-09-15T21:46:31.029Z,0.70
2022-09-15T21:49:01.563Z,0.80
2022-09-15T21:51:30.933Z,1.08
2022-09-15T21:54:00.377Z,0.77
2022-09-15T21:56:30.796Z,0.90
2022-09-15T21:58:59.017Z,1.08
2022-09-15T22:01:33.349Z,0.90
2022-09-15T22:06:40.339Z,0.90
2022-09-15T22:09:10.302Z,0.77
2022-09-15T22:11:38.540Z,0.80
2022-09-15T22:14:08.317Z,0.85
2022-09-15T22:16:38.012Z,0.70
2022-09-15T22:19:07.006Z,0.88
2022-09-15T22:21:39.620Z,0.90
2022-09-15T22:24:08.323Z,0.75
2022-09-15T22:26:38.785Z,0.93
2022-09-15T22:29:07.557Z,0.65
2022-09-15T22:31:36.727Z,0.63
2022-09-15T22:34:05.079Z,1.00
2022-09-15T22:36:34.113Z,0.60
2022-09-15T22:39:05.739Z,0.90
2022-09-15T22:41:36.452Z,0.70
2022-09-15T22:44:05.504Z,0.75
2022-09-15T22:46:34.125Z,0.70
2022-09-15T22:49:02.432Z,0.65
2022-09-15T22:51:30.573Z,0.65
2022-09-15T22:53:59.451Z,0.68
2022-09-15T22:56:29.163Z,0.73
2022-09-15T22:58:57.795Z,0.70
2022-09-15T23:01:28.149Z,0.77
2022-09-15T23:03:57.728Z,0.80
2022-09-15T23:06:27.516Z,0.90
2022-09-15T23:08:58.218Z,1.13
2022-09-15T23:11:29.965Z,0.77
2022-09-15T23:13:58.830Z,1.00
2022-09-15T23:16:28.556Z,1.13
2022-09-15T23:18:56.499Z,0.65
2022-09-15T23:21:24.511Z,0.90
2022-09-15T23:23:55.169Z,0.80
2022-09-15T23:26:25.245Z,0.77
2022-09-15T23:28:55.098Z,0.70
2022-09-15T23:31:24.235Z,1.05
2022-09-15T23:33:52.291Z,0.70
2022-09-15T23:36:20.587Z,0.70
2022-09-15T23:38:49.690Z,0.80
2022-09-15T23:41:19.056Z,0.90
2022-09-15T23:43:47.506Z,0.75
2022-09-15T23:46:17.996Z,1.98
2022-09-15T23:48:49.337Z,1.08
2022-09-15T23:51:17.443Z,0.88
2022-09-15T23:53:45.583Z,0.82
2022-09-15T23:56:14.098Z,0.90
2022-09-15T23:58:42.319Z,0.95
